Time;durP1;ratioP1;P1;durP2;ratioP2;P2;SDS_P1;SDS_P2;PMS_P1;PMS_P2;Temp;Humidity;BMP_temperature;BMP_pressure;BME280_temperature;BME280_humidity;BME280_pressure;Samples;Min_cycle;Max_cycle;Signal;HPM_P1;HPM_P2
2021/04/16 00:00:44;;;;;;;8.23;6.45;;;;;;;9.34;74.99;98933.66;1688227;83;21251;-70
2021/04/16 00:03:12;;;;;;;8.40;6.55;;;;;;;9.26;75.14;98934.27;1731203;82;21940;-69
2021/04/16 00:05:40;;;;;;;10.08;6.70;;;;;;;9.17;75.46;98937.62;1731311;83;21209;-70
2021/04/16 00:08:18;;;;;;;7.62;5.90;;;;;;;9.18;75.47;98927.41;1729305;83;21586;-70
2021/04/16 00:10:50;;;;;;;8.65;6.17;;;;;;;9.26;75.28;98931.63;1730192;82;21274;-70
2021/04/16 00:13:19;;;;;;;9.73;6.03;;;;;;;9.24;75.41;98928.75;1716334;83;21184;-70
2021/04/16 00:15:46;;;;;;;8.73;6.30;;;;;;;9.19;75.56;98925.13;1725168;83;21133;-70
2021/04/16 00:18:16;;;;;;;8.45;6.47;;;;;;;9.18;75.60;98927.41;1708025;83;21203;-70
2021/04/16 00:20:44;;;;;;;10.72;6.72;;;;;;;9.28;75.33;98925.73;1696881;84;21213;-70
2021/04/16 00:23:11;;;;;;;9.45;6.55;;;;;;;9.31;75.32;98923.33;1725055;83;21578;-70
2021/04/16 00:25:39;;;;;;;8.10;6.17;;;;;;;9.26;75.49;98925.48;1731086;83;21169;-70
2021/04/16 00:28:08;;;;;;;8.58;5.95;;;;;;;9.21;75.70;98929.83;1718111;83;21364;-70
2021/04/16 00:30:40;;;;;;;6.28;4.53;;;;;;;9.21;75.79;98919.73;1705221;84;21183;-70
2021/04/16 00:33:09;;;;;;;7.20;5.05;;;;;;;9.31;75.50;98930.78;1737317;82;21113;-70
2021/04/16 00:35:38;;;;;;;5.87;4.45;;;;;;;9.27;75.53;98929.35;1737105;82;21132;-70
2021/04/16 00:38:06;;;;;;;6.42;4.45;;;;;;;9.18;75.68;98924.77;1731056;82;21123;-70
2021/04/16 00:40:41;;;;;;;6.85;4.70;;;;;;;9.17;75.77;98927.08;1737778;82;21736;-70
2021/04/16 00:43:10;;;;;;;6.25;4.97;;;;;;;9.28;75.40;98925.73;1736341;82;21158;-70
2021/04/16 00:45:38;;;;;;;7.75;4.60;;;;;;;9.30;75.39;98925.14;1721340;82;21163;-70
2021/04/16 00:48:13;;;;;;;6.22;4.70;;;;;;;9.26;75.26;98922.39;1705338;84;21174;-70
2021/04/16 00:50:49;;;;;;;9.28;5.45;;;;;;;9.20;75.36;98916.77;1716289;83;21744;-70
2021/04/16 00:53:19;;;;;;;7.15;4.80;;;;;;;9.25;75.24;98929.11;1717181;83;21284;-70
2021/04/16 00:55:46;;;;;;;6.10;4.58;;;;;;;9.34;74.88;98920.47;1685513;83;21345;-70
2021/04/16 00:58:13;;;;;;;6.87;4.97;;;;;;;9.30;75.00;98929.59;1684442;84;21639;-70
2021/04/16 01:00:42;;;;;;;6.42;4.65;;;;;;;9.18;75.19;98932.68;1696603;84;21166;-70
2021/04/16 01:03:13;;;;;;;6.72;4.95;;;;;;;9.05;75.46;98928.84;1705530;83;21690;-70
2021/04/16 01:05:41;;;;;;;6.22;5.22;;;;;;;9.06;75.62;98925.74;1677504;84;21182;-70
2021/04/16 01:08:10;;;;;;;8.43;5.35;;;;;;;8.96;75.80;98925.60;1718144;83;21167;-71
2021/04/16 01:10:39;;;;;;;5.80;4.62;;;;;;;8.83;76.15;98927.02;1718243;83;21689;-71
2021/04/16 01:13:07;;;;;;;7.45;5.30;;;;;;;8.83;76.38;98927.02;1717755;83;21662;-70
2021/04/16 01:15:38;;;;;;;7.70;5.08;;;;;;;8.95;76.03;98928.73;1708391;83;21183;-70
2021/04/16 01:18:12;;;;;;;7.08;5.10;;;;;;;8.94;76.17;98931.46;1688823;83;21658;-70
2021/04/16 01:20:44;;;;;;;7.47;5.55;;;;;;;8.88;76.35;98930.64;1718083;83;21217;-71
2021/04/16 01:23:40;;;;;;;6.97;5.22;;;;;;;8.86;76.46;98932.05;1690059;83;21646;-70
2021/04/16 01:26:07;;;;;;;7.47;5.75;;;;;;;9.06;76.09;98933.66;1708139;83;21179;-70
2021/04/16 01:28:36;;;;;;;7.37;5.67;;;;;;;9.10;75.71;98934.59;1720776;83;21130;-70
2021/04/16 01:31:12;;;;;;;7.97;5.22;;;;;;;9.05;75.80;98930.65;1751989;82;21785;-70
2021/04/16 01:33:40;;;;;;;6.95;4.92;;;;;;;9.00;75.91;98926.58;1752126;82;21651;-70
2021/04/16 01:36:13;;;;;;;6.97;5.15;;;;;;;9.04;75.79;98931.60;1747055;82;21129;-70
2021/04/16 01:38:42;;;;;;;6.97;5.08;;;;;;;9.15;75.47;98921.89;1747290;82;21143;-70
2021/04/16 01:41:13;;;;;;;7.20;5.20;;;;;;;9.10;75.44;98925.86;1738989;82;21198;-71
2021/04/16 01:43:46;;;;;;;6.47;4.78;;;;;;;8.99;75.55;98924.89;1739088;82;21178;-70
2021/04/16 01:46:16;;;;;;;6.42;4.70;;;;;;;8.90;75.69;98924.29;1739217;82;21182;-70
2021/04/16 01:48:48;;;;;;;7.72;5.70;;;;;;;9.05;75.35;98919.61;1747169;82;21615;-70
2021/04/16 01:51:21;;;;;;;6.83;4.97;;;;;;;9.11;75.18;98919.63;1749714;82;21123;-70
2021/04/16 01:53:48;;;;;;;8.15;5.60;;;;;;;9.03;75.08;98913.63;1722053;83;21201;-70
2021/04/16 01:56:16;;;;;;;7.50;5.50;;;;;;;8.82;75.36;98912.16;1702324;84;21217;-70
2021/04/16 01:58:43;;;;;;;6.78;5.25;;;;;;;8.79;75.55;98922.95;1738910;82;21098;-70
2021/04/16 02:01:10;;;;;;;8.65;5.40;;;;;;;8.74;75.65;98909.28;1739532;82;21292;-70
2021/04/16 02:03:38;;;;;;;6.95;5.17;;;;;;;8.65;75.95;98917.41;1721361;82;21094;-70
2021/04/16 02:06:10;;;;;;;7.03;5.30;;;;;;;8.59;76.16;98910.78;1745918;82;21137;-70
2021/04/16 02:08:38;;;;;;;7.00;5.30;;;;;;;8.66;75.97;98918.59;1746315;82;21152;-70
2021/04/16 02:11:06;;;;;;;7.60;4.78;;;;;;;8.75;75.71;98909.64;1739375;82;21307;-70
2021/04/16 02:13:34;;;;;;;7.03;4.75;;;;;;;8.71;75.86;98914.77;1744566;82;21099;-70
2021/04/16 02:16:03;;;;;;;7.60;4.80;;;;;;;8.65;75.91;98909.00;1740683;82;21194;-70
2021/04/16 02:18:30;;;;;;;6.22;4.42;;;;;;;8.69;75.81;98910.44;1741775;82;21260;-70
2021/04/16 02:20:58;;;;;;;6.60;4.80;;;;;;;8.82;75.43;98914.33;1745732;82;21202;-70
2021/04/16 02:23:25;;;;;;;6.28;4.08;;;;;;;8.75;75.31;98913.59;1745473;82;21308;-70
2021/04/16 02:25:53;;;;;;;6.12;4.60;;;;;;;8.72;75.54;98913.81;1752298;82;21170;-70
2021/04/16 02:28:21;;;;;;;5.72;4.10;;;;;;;8.68;75.53;98914.52;1728133;81;21158;-70
2021/04/16 02:30:48;;;;;;;5.55;4.28;;;;;;;8.71;75.37;98912.98;1751818;82;21277;-70
2021/04/16 02:33:16;;;;;;;5.25;4.10;;;;;;;8.83;75.13;98921.25;1754145;82;21182;-70
2021/04/16 02:35:43;;;;;;;6.75;4.53;;;;;;;8.76;75.11;98913.94;1754269;82;21187;-70
2021/04/16 02:38:11;;;;;;;5.17;4.10;;;;;;;8.63;75.37;98912.25;1752911;82;22138;-70
2021/04/16 02:40:38;;;;;;;7.00;3.98;;;;;;;8.63;75.50;98916.20;1751556;82;21163;-70
2021/04/16 02:43:05;;;;;;;5.83;4.03;;;;;;;8.80;75.21;98915.41;1740716;82;21292;-70
2021/04/16 02:45:33;;;;;;;5.10;4.05;;;;;;;8.80;75.15;98915.41;1738818;82;22225;-70
2021/04/16 02:48:00;;;;;;;5.70;4.42;;;;;;;8.72;75.41;98913.81;1742976;82;21139;-70
2021/04/16 02:50:29;;;;;;;6.83;4.45;;;;;;;8.63;75.64;98911.39;1745106;82;21773;-70
2021/04/16 02:52:57;;;;;;;5.92;4.80;;;;;;;8.61;75.73;98908.88;1739980;82;21166;-70
2021/04/16 02:55:24;;;;;;;6.40;5.25;;;;;;;8.66;75.64;98908.05;1748842;82;21300;-70
2021/04/16 02:57:51;;;;;;;5.15;4.00;;;;;;;8.61;75.84;98912.83;1738975;82;21586;-70
2021/04/16 03:00:22;;;;;;;7.53;4.50;;;;;;;8.55;76.12;98917.73;1740320;82;21305;-70
2021/04/16 03:02:50;;;;;;;6.35;4.22;;;;;;;8.51;76.25;98914.48;1738600;82;21710;-70
2021/04/16 03:05:19;;;;;;;7.05;4.47;;;;;;;8.67;75.96;98912.83;1749591;82;21594;-69
2021/04/16 03:07:46;;;;;;;6.45;5.15;;;;;;;8.63;75.96;98916.66;1748366;82;21114;-70
2021/04/16 03:10:15;;;;;;;6.05;4.37;;;;;;;8.52;76.27;98920.95;1738490;82;21154;-70
2021/04/16 03:12:42;;;;;;;6.37;4.12;;;;;;;8.57;76.30;98912.70;1740047;82;21170;-70
2021/04/16 03:15:11;;;;;;;5.05;4.25;;;;;;;8.72;75.86;98908.54;1738430;82;21165;-70
2021/04/16 03:17:38;;;;;;;6.22;4.25;;;;;;;8.79;75.81;98915.03;1741862;82;21694;-71
2021/04/16 03:20:08;;;;;;;6.72;5.08;;;;;;;8.80;75.85;98915.41;1718618;82;21174;-70
2021/04/16 03:22:35;;;;;;;7.67;4.80;;;;;;;8.80;75.82;98908.33;1739300;82;21292;-70
2021/04/16 03:25:06;;;;;;;7.10;4.55;;;;;;;8.88;75.45;98913.50;1746754;82;21147;-70
2021/04/16 03:27:35;;;;;;;6.22;4.40;;;;;;;8.95;75.17;98910.27;1753476;82;21171;-70
2021/04/16 03:30:06;;;;;;;6.30;4.83;;;;;;;8.90;75.24;98920.80;1749647;81;21158;-70
2021/04/16 03:32:33;;;;;;;5.30;3.85;;;;;;;8.79;75.28;98917.67;1750698;82;21131;-70
2021/04/16 03:35:01;;;;;;;6.05;4.42;;;;;;;8.69;75.52;98910.44;1750528;81;21166;-70
2021/04/16 03:37:28;;;;;;;4.72;3.90;;;;;;;8.77;75.36;98911.66;1749572;82;21551;-70
2021/04/16 03:39:55;;;;;;;6.17;4.70;;;;;;;8.86;75.18;98905.68;1749371;82;21163;-70
2021/04/16 03:42:23;;;;;;;6.60;5.00;;;;;;;8.80;75.11;98917.55;1751113;82;21554;-70
2021/04/16 03:44:50;;;;;;;6.58;4.85;;;;;;;8.69;75.35;98913.08;1747733;82;21583;-70
2021/04/16 03:47:17;;;;;;;7.05;4.60;;;;;;;8.66;75.45;98925.19;1749807;82;21167;-70
2021/04/16 03:49:45;;;;;;;5.53;4.37;;;;;;;8.79;75.29;98917.67;1743787;82;21459;-70
2021/04/16 03:52:12;;;;;;;5.50;4.08;;;;;;;8.84;75.21;98915.52;1737652;82;21098;-70
2021/04/16 03:54:40;;;;;;;5.00;4.20;;;;;;;8.79;75.31;98915.03;1740397;82;21167;-71
2021/04/16 03:57:09;;;;;;;6.60;4.42;;;;;;;8.69;75.54;98922.30;1751126;82;21160;-71
2021/04/16 03:59:37;;;;;;;6.55;4.25;;;;;;;8.73;75.59;98922.92;1741038;82;21153;-71
2021/04/16 04:02:04;;;;;;;5.40;4.05;;;;;;;8.88;75.29;98922.73;1718874;83;21179;-71
2021/04/16 04:04:33;;;;;;;7.95;5.00;;;;;;;8.85;75.26;98926.44;1686537;83;21646;-71
2021/04/16 04:07:01;;;;;;;4.90;3.70;;;;;;;8.79;75.47;98925.09;1713110;83;21159;-71
2021/04/16 04:09:28;;;;;;;7.15;4.40;;;;;;;8.73;75.57;98921.59;1705175;84;21352;-71
2021/04/16 04:11:57;;;;;;;6.70;4.22;;;;;;;8.70;75.61;98925.80;1705238;83;21162;-71
2021/04/16 04:14:27;;;;;;;6.92;4.92;;;;;;;8.81;75.42;98928.92;1743054;82;21189;-71
2021/04/16 04:16:59;;;;;;;5.05;4.00;;;;;;;8.78;75.33;98934.44;1692409;84;21302;-71
2021/04/16 04:19:28;;;;;;;7.70;4.95;;;;;;;8.69;75.34;98931.53;1705203;84;21186;-71
2021/04/16 04:21:59;;;;;;;6.40;4.03;;;;;;;8.62;75.47;98932.11;1707052;82;21185;-71
2021/04/16 04:24:27;;;;;;;7.08;4.20;;;;;;;8.64;75.27;98934.16;1706877;83;21260;-71
2021/04/16 04:28:46;;;;;;;4.72;3.67;;;;;;;8.74;74.76;98933.00;1778467;79;23068;-70
2021/04/16 04:31:13;;;;;;;5.37;4.12;;;;;;;8.64;74.88;98935.48;1752976;82;21143;-70
2021/04/16 04:33:44;;;;;;;6.05;3.90;;;;;;;8.56;74.93;98936.06;1739987;82;21261;-70
2021/04/16 04:36:12;;;;;;;5.58;4.40;;;;;;;8.51;75.06;98936.39;1658193;85;21206;-70
2021/04/16 04:38:42;;;;;;;6.78;4.30;;;;;;;8.58;74.89;98935.48;1697585;84;21596;-71
2021/04/16 04:41:10;;;;;;;5.85;4.12;;;;;;;8.68;74.61;98943.05;1660228;85;21642;-70
2021/04/16 04:43:37;;;;;;;5.62;4.28;;;;;;;8.63;74.58;98935.97;1703343;84;21167;-70
2021/04/16 04:46:05;;;;;;;5.37;4.40;;;;;;;8.55;74.58;98937.02;1678822;85;21198;-70
2021/04/16 04:48:33;;;;;;;6.60;4.60;;;;;;;8.46;74.69;98931.95;1684286;84;21179;-70
2021/04/16 04:51:00;;;;;;;5.55;4.55;;;;;;;8.50;74.75;98935.20;1686017;84;21149;-70
2021/04/16 04:53:27;;;;;;;6.25;4.80;;;;;;;8.61;74.58;98931.28;1694075;84;21206;-71
2021/04/16 04:55:55;;;;;;;6.37;4.50;;;;;;;8.54;74.66;98932.69;1704415;84;21178;-71
2021/04/16 04:58:22;;;;;;;5.42;4.22;;;;;;;8.47;74.87;98934.95;1698656;84;21316;-71
2021/04/16 05:00:50;;;;;;;6.25;4.60;;;;;;;8.43;74.93;98933.97;1697015;84;21143;-71
2021/04/16 05:03:17;;;;;;;6.80;4.55;;;;;;;8.57;74.66;98932.48;1680096;84;21714;-71
2021/04/16 05:05:44;;;;;;;8.98;4.95;;;;;;;8.65;74.52;98934.05;1669613;85;21150;-70
2021/04/16 05:08:11;;;;;;;5.97;4.60;;;;;;;8.66;74.59;98933.09;1700678;83;21152;-73
2021/04/16 05:10:39;;;;;;;7.30;5.50;;;;;;;8.65;74.67;98935.36;1677726;85;21308;-72
2021/04/16 05:13:06;;;;;;;7.40;4.45;;;;;;;8.64;74.65;98932.84;1663172;85;21169;-72
2021/04/16 05:15:35;;;;;;;5.72;4.58;;;;;;;8.66;74.56;98929.62;1665356;85;21193;-71
2021/04/16 05:18:03;;;;;;;7.67;5.22;;;;;;;8.73;74.41;98941.86;1659401;85;21173;-71
2021/04/16 05:20:30;;;;;;;5.42;4.42;;;;;;;8.68;74.55;98939.09;1655547;85;21691;-72
2021/04/16 05:22:57;;;;;;;7.92;5.60;;;;;;;8.64;74.63;98931.03;1676636;85;21217;-70
2021/04/16 05:25:25;;;;;;;7.80;5.20;;;;;;;8.57;74.75;98928.52;1687114;84;21188;-71
2021/04/16 05:27:52;;;;;;;7.03;4.90;;;;;;;8.64;74.72;98929.72;1688932;84;21501;-70
2021/04/16 05:30:20;;;;;;;8.43;5.72;;;;;;;8.75;74.51;98931.56;1677233;84;21342;-70
2021/04/16 05:32:49;;;;;;;9.40;5.33;;;;;;;8.71;74.65;98938.48;1693392;84;21621;-70
2021/04/16 05:35:16;;;;;;;7.05;4.85;;;;;;;8.66;74.84;98927.82;1705333;84;21133;-70
2021/04/16 05:37:44;;;;;;;9.40;5.03;;;;;;;8.62;74.95;98932.97;1695684;84;21169;-72
2021/04/16 05:40:12;;;;;;;7.25;5.20;;;;;;;8.69;75.01;98929.38;1702487;83;22265;-70
2021/04/16 05:42:40;;;;;;;8.40;5.20;;;;;;;8.87;74.62;98933.73;1695312;85;21209;-71
2021/04/16 05:45:08;;;;;;;10.10;5.10;;;;;;;8.97;74.48;98932.07;1669308;84;21149;-72
2021/04/16 05:47:36;;;;;;;11.00;6.15;;;;;;;9.01;74.40;98931.36;1688064;84;21149;-72
2021/04/16 05:50:05;;;;;;;8.65;6.10;;;;;;;9.02;74.22;98927.28;1692416;85;21332;-72
2021/04/16 05:52:32;;;;;;;7.97;5.87;;;;;;;9.08;73.86;98927.77;1691011;84;21672;-72
2021/04/16 05:54:59;;;;;;;8.85;6.10;;;;;;;9.25;73.39;98926.47;1689957;84;21193;-73
2021/04/16 05:57:26;;;;;;;12.07;8.13;;;;;;;9.28;73.26;98925.73;1687152;84;21160;-71
2021/04/16 05:59:55;;;;;;;10.82;7.10;;;;;;;9.28;73.13;98928.86;1690790;85;21318;-71
2021/04/16 06:02:35;;;;;;;12.53;6.33;;;;;;;9.24;73.18;98926.94;1686362;84;21160;-71
2021/04/16 06:05:11;;;;;;;11.65;6.25;;;;;;;9.30;72.93;98927.78;1688978;84;21553;-70
2021/04/16 06:07:38;;;;;;;12.93;6.45;;;;;;;9.45;72.56;98925.74;1687980;84;21585;-74
2021/04/16 06:10:09;;;;;;;8.95;6.35;;;;;;;9.43;72.83;98925.50;1684773;84;21177;-70
2021/04/16 06:12:38;;;;;;;9.45;6.53;;;;;;;9.42;72.63;98927.78;1674112;85;21669;-71
2021/04/16 06:15:10;;;;;;;10.38;5.80;;;;;;;9.42;72.49;98925.97;1669521;85;21133;-70
2021/04/16 06:17:39;;;;;;;22.50;6.83;;;;;;;9.48;72.16;98929.45;1690572;84;21160;-70
2021/04/16 06:20:08;;;;;;;10.38;6.40;;;;;;;9.59;71.82;98929.94;1674366;86;21213;-70
2021/04/16 06:22:35;;;;;;;10.45;6.33;;;;;;;9.57;71.91;98937.12;1694344;84;21712;-70
2021/04/16 06:25:05;;;;;;;9.78;6.92;;;;;;;9.56;71.85;98935.44;1684568;85;21181;-71
2021/04/16 06:27:32;;;;;;;8.98;6.35;;;;;;;9.54;71.73;98934.74;1688887;84;21189;-71
2021/04/16 06:29:59;;;;;;;7.15;4.85;;;;;;;9.55;71.69;98939.03;1679696;84;21633;-72
2021/04/16 06:32:27;;;;;;;8.75;5.67;;;;;;;9.70;71.44;98934.84;1680777;85;21157;-72
2021/04/16 06:34:54;;;;;;;9.90;5.67;;;;;;;9.81;71.21;98944.06;1678478;85;21197;-71
2021/04/16 06:37:21;;;;;;;7.28;6.05;;;;;;;9.77;71.15;98945.25;1662196;85;21189;-71
2021/04/16 06:39:48;;;;;;;11.28;6.95;;;;;;;9.74;71.15;98946.83;1681266;85;21172;-71
2021/04/16 06:42:31;;;;;;;12.33;6.22;;;;;;;9.73;71.04;98946.46;1680375;85;21190;-72
2021/04/16 06:45:00;;;;;;;10.10;5.65;;;;;;;9.72;71.02;98944.78;1673931;85;21197;-70
2021/04/16 06:47:37;;;;;;;12.70;6.37;;;;;;;9.75;70.90;98943.23;1666956;86;21222;-71
2021/04/16 06:50:06;;;;;;;14.38;6.10;;;;;;;9.82;70.61;98946.58;1672541;85;21312;-71
2021/04/16 06:52:41;;;;;;;8.85;6.42;;;;;;;9.79;70.71;98951.26;1683576;85;21188;-70
2021/04/16 06:55:31;;;;;;;8.48;5.62;;;;;;;9.76;70.53;98953.66;1694035;85;21371;-72
2021/04/16 06:58:12;;;;;;;8.80;5.60;;;;;;;9.74;70.62;98949.47;1686189;83;21524;-72
2021/04/16 07:00:51;;;;;;;7.60;5.78;;;;;;;9.68;70.65;98954.27;1688486;83;21185;-71
2021/04/16 07:03:27;;;;;;;10.35;6.75;;;;;;;9.84;70.30;98957.01;1699285;83;21189;-71
2021/04/16 07:06:21;;;;;;;7.87;5.87;;;;;;;9.84;70.16;98953.05;1686055;85;21186;-72
2021/04/16 07:09:15;;;;;;;9.53;6.60;;;;;;;9.80;70.12;98956.91;1684874;83;21200;-71
2021/04/16 07:11:51;;;;;;;12.03;6.42;;;;;;;9.70;70.15;98957.28;1695484;83;21166;-72
2021/04/16 07:14:47;;;;;;;10.05;5.80;;;;;;;9.73;70.17;98964.94;1672689;83;21185;-72
2021/04/16 07:17:22;;;;;;;7.60;5.50;;;;;;;9.86;69.88;98967.45;1687083;85;21165;-72
2021/04/16 07:19:52;;;;;;;7.92;6.22;;;;;;;9.77;69.74;98970.33;1700788;83;21095;-72
2021/04/16 07:22:26;;;;;;;6.60;5.67;;;;;;;9.63;70.08;98960.41;1677267;83;21166;-73
2021/04/16 07:24:53;;;;;;;10.00;5.80;;;;;;;9.59;70.30;98961.61;1674169;83;21829;-71
2021/04/16 07:27:47;;;;;;;9.98;5.53;;;;;;;9.58;70.39;98959.92;1688869;83;21127;-71
2021/04/16 07:30:46;;;;;;;7.87;5.40;;;;;;;9.73;70.21;98964.94;1712327;82;21185;-72
2021/04/16 07:33:41;;;;;;;9.68;5.40;;;;;;;9.80;69.79;98962.19;1699738;83;21822;-73
2021/04/16 07:36:35;;;;;;;21.85;6.12;;;;;;;9.71;69.81;98961.61;1704975;82;21117;-73
2021/04/16 07:39:17;;;;;;;;;;;;;;;9.60;70.09;98957.98;1739144;82;21170;-74
2021/04/16 07:41:55;;;;;;;7.78;5.60;;;;;;;9.52;70.27;98968.32;1736876;82;20280;-72
2021/04/16 07:44:34;;;;;;;9.10;5.22;;;;;;;9.35;70.81;98966.52;1698485;83;21190;-71
2021/04/16 07:47:15;;;;;;;9.10;4.90;;;;;;;9.42;70.99;98973.97;1696818;82;21308;-71
2021/04/16 07:50:27;;;;;;;6.50;5.10;;;;;;;9.28;70.50;98920.45;1691431;82;21177;-72
2021/04/16 07:52:54;;;;;;;7.40;4.72;;;;;;;9.63;70.54;98973.60;1671692;85;21552;-73
2021/04/16 07:55:32;;;;;;;6.92;5.08;;;;;;;9.59;70.74;98980.09;1724600;82;21642;-73
2021/04/16 07:58:19;;;;;;;6.83;4.83;;;;;;;9.54;70.43;98984.03;1713979;82;21209;-71
2021/04/16 08:00:46;;;;;;;6.97;5.03;;;;;;;9.45;70.50;98977.21;1712413;82;21164;-72
2021/04/16 08:03:22;;;;;;;7.25;5.42;;;;;;;9.50;70.36;98976.83;1689487;84;21181;-72
2021/04/16 08:05:55;;;;;;;8.48;4.97;;;;;;;9.68;70.12;98974.08;1727240;82;21149;-73
2021/04/16 08:08:27;;;;;;;11.40;5.58;;;;;;;9.74;70.01;98976.70;1694245;82;21161;-73
2021/04/16 08:11:09;;;;;;;9.43;5.12;;;;;;;9.81;70.30;98980.54;1679249;83;21494;-70
2021/04/16 08:13:52;;;;;;;7.15;4.72;;;;;;;9.92;69.95;98973.06;1678127;84;21125;-72
2021/04/16 08:16:39;;;;;;;6.30;4.20;;;;;;;9.90;69.30;98972.37;1682500;83;21173;-73
2021/04/16 08:19:22;;;;;;;19.73;5.28;;;;;;;9.90;69.40;98982.94;1701353;82;21613;-71
2021/04/16 08:21:56;;;;;;;6.90;4.90;;;;;;;10.12;69.82;98974.11;1685815;83;21666;-69
2021/04/16 08:24:52;;;;;;;8.35;5.55;;;;;;;10.26;69.91;98972.17;1693278;82;21155;-70
2021/04/16 08:27:50;;;;;;;6.78;5.62;;;;;;;10.32;69.88;98965.89;1693075;85;21339;-70
2021/04/16 08:30:29;;;;;;;8.18;5.62;;;;;;;10.36;69.62;98964.34;1688492;82;21193;-71
2021/04/16 08:33:20;;;;;;;8.93;5.65;;;;;;;10.40;69.87;98975.04;1671603;83;21173;-72
2021/04/16 08:36:01;;;;;;;7.45;4.95;;;;;;;10.41;69.88;98980.66;1699630;83;21487;-70
2021/04/16 08:38:33;;;;;;;6.78;4.20;;;;;;;10.46;69.31;98985.08;1705581;82;21184;-70
2021/04/16 08:41:02;;;;;;;8.10;4.75;;;;;;;10.55;69.21;98978.20;1694238;84;21325;-71
2021/04/16 08:43:50;;;;;;;8.90;5.53;;;;;;;10.46;68.74;98978.47;1674936;84;21193;-71
2021/04/16 08:46:38;;;;;;;7.00;5.75;;;;;;;10.36;69.53;98976.23;1703046;82;21189;-70
2021/04/16 08:49:13;;;;;;;8.58;5.62;;;;;;;10.38;69.69;98978.28;1685738;82;21319;-69
2021/04/16 08:51:49;;;;;;;10.30;6.62;;;;;;;10.34;69.77;98981.62;1672719;84;21212;-68
2021/04/16 08:54:27;;;;;;;8.83;6.28;;;;;;;10.52;70.07;98985.08;1687819;83;21169;-70
2021/04/16 08:57:17;;;;;;;11.28;8.23;;;;;;;10.64;68.94;98990.19;1687106;82;21565;-70
2021/04/16 09:00:19;;;;;;;12.03;7.12;;;;;;;10.52;69.32;98981.94;1675291;83;21149;-69
2021/04/16 09:02:53;;;;;;;8.70;7.17;;;;;;;10.49;69.35;98987.49;1696637;82;21144;-71
2021/04/16 09:05:51;;;;;;;;;;;;;;;10.48;69.65;98992.42;1694180;84;21200;-70
2021/04/16 09:08:30;;;;;;;10.45;6.87;;;;;;;10.47;69.83;98989.41;1716890;81;20431;-71
2021/04/16 09:10:58;;;;;;;10.32;6.60;;;;;;;10.57;69.68;98987.69;1740964;81;21116;-72
2021/04/16 09:13:48;;;;;;;11.05;7.37;;;;;;;10.68;69.84;98991.24;1732489;81;21183;-70
2021/04/16 09:16:21;;;;;;;9.90;7.05;;;;;;;10.72;69.59;98996.66;1743238;80;21190;-70
2021/04/16 09:18:52;;;;;;;10.95;7.40;;;;;;;10.71;69.78;98987.87;1742780;81;21285;-71
2021/04/16 09:21:31;;;;;;;9.90;6.75;;;;;;;10.72;69.57;98989.55;1749266;81;21142;-71
2021/04/16 09:24:07;;;;;;;8.93;6.80;;;;;;;10.73;69.18;98995.67;1741092;80;21260;-70
2021/04/16 09:26:50;;;;;;;12.75;6.58;;;;;;;10.86;68.96;98992.37;1751591;81;21304;-71
2021/04/16 09:29:38;;;;;;;11.20;6.90;;;;;;;10.82;69.48;98994.42;1755736;81;21182;-71
2021/04/16 09:32:29;;;;;;;13.50;7.60;;;;;;;10.80;69.85;98998.99;1750928;81;21533;-69
2021/04/16 09:35:03;;;;;;;13.10;8.28;;;;;;;10.84;70.10;98995.61;1751853;81;22108;-69
2021/04/16 09:37:39;;;;;;;9.90;6.70;;;;;;;11.01;69.46;98997.33;1721878;81;21147;-68
2021/04/16 09:40:23;;;;;;;9.55;6.97;;;;;;;11.08;69.43;98998.50;1750273;81;21190;-73
2021/04/16 09:43:09;;;;;;;9.43;6.97;;;;;;;11.09;69.28;99000.19;1743052;81;21136;-73
2021/04/16 09:45:41;;;;;;;8.58;6.40;;;;;;;11.08;68.95;99000.66;1723447;80;21439;-74
2021/04/16 09:48:22;;;;;;;11.15;6.85;;;;;;;11.08;68.84;99001.98;1744954;81;21159;-74
2021/04/16 09:51:01;;;;;;;9.18;6.75;;;;;;;11.23;68.50;98995.05;1733633;80;21309;-73
2021/04/16 09:53:34;;;;;;;9.18;6.83;;;;;;;11.22;68.54;99005.27;1752132;81;21126;-73
2021/04/16 09:56:13;;;;;;;13.95;7.22;;;;;;;11.15;68.59;98999.64;1725434;81;21195;-73
2021/04/16 09:58:56;;;;;;;10.18;6.50;;;;;;;11.08;68.75;99001.15;1742100;81;21175;-72
2021/04/16 10:01:25;;;;;;;10.00;6.05;;;;;;;11.10;68.81;99001.84;1731752;81;21611;-71
2021/04/16 10:04:06;;;;;;;9.48;6.70;;;;;;;11.25;68.24;99001.89;1738610;81;21152;-72
2021/04/16 10:06:39;;;;;;;9.35;6.90;;;;;;;11.19;68.01;98998.44;1723754;82;21178;-72
2021/04/16 10:09:25;;;;;;;9.17;7.43;;;;;;;11.11;68.75;99000.88;1751962;81;21140;-72
2021/04/16 10:12:01;;;;;;;10.43;7.22;;;;;;;11.06;68.66;99004.39;1759395;80;21170;-73
2021/04/16 10:14:34;;;;;;;9.28;7.00;;;;;;;11.04;69.01;99005.03;1753166;81;21317;-74
2021/04/16 10:17:13;;;;;;;8.60;7.08;;;;;;;11.12;68.80;99003.88;1752560;81;21533;-73
2021/04/16 10:20:04;;;;;;;8.85;6.47;;;;;;;11.28;68.54;99004.27;1743788;82;21163;-75
2021/04/16 10:22:34;;;;;;;8.60;6.60;;;;;;;11.22;68.72;99008.75;1710481;83;21209;-74
2021/04/16 10:33:02;;;;;;;13.45;8.98;;;;;;;11.22;68.69;99006.60;1687771;84;21179;-74
2021/04/16 11:19:15;;;;;;;8.48;6.50;;;;;;;12.17;66.73;99004.63;1650697;82;21233;-72
2021/04/16 12:39:53;;;;;;;12.68;8.53;;;;;;;12.01;64.14;99005.13;1743690;81;21132;-73
2021/04/16 12:42:20;;;;;;;9.75;7.00;;;;;;;11.96;64.05;99006.38;1697289;84;21183;-75
2021/04/16 12:44:51;;;;;;;12.15;8.73;;;;;;;11.91;63.54;99003.27;1750002;81;21164;-74
2021/04/16 12:47:30;;;;;;;10.90;8.03;;;;;;;11.84;64.17;98995.53;1741211;80;21364;-74
2021/04/16 12:49:59;;;;;;;11.90;8.48;;;;;;;11.80;64.35;99011.31;1726258;82;21290;-73
2021/04/16 12:52:26;;;;;;;11.68;8.35;;;;;;;11.63;63.96;99000.38;1713810;82;21174;-74
2021/04/16 12:54:54;;;;;;;10.45;8.28;;;;;;;11.46;64.53;99004.98;1747950;80;21695;-73
2021/04/16 12:57:33;;;;;;;11.03;7.92;;;;;;;11.34;64.74;99007.36;1756136;80;21183;-74
2021/04/16 13:00:06;;;;;;;10.75;7.42;;;;;;;11.22;65.50;99004.78;1734610;80;21155;-73
2021/04/16 13:02:34;;;;;;;11.97;8.50;;;;;;;11.31;65.65;99001.34;1741563;80;21149;-76
2021/04/16 13:05:06;;;;;;;11.43;7.95;;;;;;;11.39;65.18;99009.13;1747893;80;21626;-76
2021/04/16 13:07:35;;;;;;;14.13;8.38;;;;;;;11.35;65.22;98999.77;1746836;82;21293;-75
2021/04/16 13:10:14;;;;;;;13.48;8.55;;;;;;;11.28;65.56;98997.64;1748134;80;21278;-74
2021/04/16 13:12:42;;;;;;;13.83;8.03;;;;;;;11.26;65.60;98996.92;1698096;84;21337;-74
2021/04/16 13:15:11;;;;;;;13.43;8.98;;;;;;;11.22;65.63;98992.87;1739237;80;21194;-74
2021/04/16 13:17:40;;;;;;;10.60;7.80;;;;;;;11.20;65.86;98992.18;1744447;80;21143;-74
2021/04/16 13:20:11;;;;;;;13.70;8.70;;;;;;;11.26;65.61;98999.57;1731985;82;21475;-75
2021/04/16 13:22:39;;;;;;;11.33;8.20;;;;;;;11.38;65.71;98995.53;1722324;82;21273;-74
2021/04/16 13:25:06;;;;;;;11.20;8.60;;;;;;;11.39;65.46;98998.53;1726817;82;21171;-74
2021/04/16 13:27:33;;;;;;;11.28;7.45;;;;;;;11.38;65.69;99000.82;1733849;80;21199;-75
2021/04/16 13:30:01;;;;;;;9.65;7.42;;;;;;;11.39;65.86;98995.88;1748545;80;21208;-74
2021/04/16 13:32:33;;;;;;;11.08;8.18;;;;;;;11.32;65.87;98994.25;1753281;80;21608;-73
2021/04/16 13:35:01;;;;;;;10.98;7.37;;;;;;;11.20;65.61;99000.13;1778127;80;21140;-73
2021/04/16 13:37:31;;;;;;;13.22;8.13;;;;;;;11.19;65.97;98999.76;1747445;81;21791;-74
2021/04/16 13:40:00;;;;;;;13.20;8.28;;;;;;;11.31;65.87;99001.34;1749678;80;21141;-74
2021/04/16 13:42:27;;;;;;;10.53;8.00;;;;;;;11.32;66.17;98995.58;1723715;82;21195;-73
2021/04/16 13:44:55;;;;;;;9.28;7.22;;;;;;;11.28;66.00;99001.61;1754640;80;21186;-72
2021/04/16 13:47:25;;;;;;;9.88;7.35;;;;;;;11.24;65.63;98998.88;1736955;82;21188;-75
2021/04/16 13:49:58;;;;;;;12.25;8.03;;;;;;;11.15;66.14;98998.31;1709465;80;21640;-76
2021/04/16 13:52:26;;;;;;;10.23;7.15;;;;;;;11.13;66.00;99002.92;1784366;80;21365;-76
2021/04/16 13:54:55;;;;;;;10.48;7.92;;;;;;;11.16;66.05;99002.65;1682694;83;21155;-76
2021/04/16 13:57:24;;;;;;;10.53;7.97;;;;;;;11.28;65.86;99000.29;1750973;80;21183;-76
2021/04/16 13:59:51;;;;;;;13.20;9.00;;;;;;;11.26;66.09;99006.19;1723277;83;21595;-76
2021/04/16 14:02:23;;;;;;;11.70;8.13;;;;;;;11.18;65.94;99003.37;1669351;84;21182;-77
2021/04/16 14:04:51;;;;;;;12.07;8.40;;;;;;;11.07;66.01;99009.55;1742733;82;21154;-77
2021/04/16 14:07:18;;;;;;;11.78;8.60;;;;;;;10.87;66.44;98997.16;1720159;82;21277;-76
2021/04/16 14:09:47;;;;;;;11.43;7.92;;;;;;;10.77;67.04;98997.94;1672934;84;21564;-76
2021/04/16 14:12:15;;;;;;;9.78;7.65;;;;;;;10.77;67.27;98999.76;1727772;80;21162;-76